Time;durP1;ratioP1;P1;durP2;ratioP2;P2;SDS_P1;SDS_P2;PMS_P1;PMS_P2;Temp;Humidity;BMP_temperature;BMP_pressure;BME280_temperature;BME280_humidity;BME280_pressure;Samples;Min_cycle;Max_cycle;Signal;HPM_P1;HPM_P2
2021/03/28 00:00:10;;;;;;;;;;;5.10;83.10;;;;;;4878562;29;20300;-81
2021/03/28 00:02:52;;;;;;;;;;;5.20;83.30;;;;;;4879067;29;20349;-83
2021/03/28 00:05:17;;;;;;;;;;;5.20;83.50;;;;;;4877830;29;19930;-83
2021/03/28 00:07:54;;;;;;;;;;;5.10;83.50;;;;;;4882449;29;19924;-83
2021/03/28 00:10:34;;;;;;;;;;;5.10;83.50;;;;;;4882666;29;19939;-83
2021/03/28 00:13:06;;;;;;;;;;;5.10;83.50;;;;;;4882004;29;19924;-83
2021/03/28 00:15:36;;;;;;;;;;;5.10;83.60;;;;;;4883315;29;20264;-83
2021/03/28 00:18:12;;;;;;;;;;;5.10;83.60;;;;;;4882267;29;20394;-83
2021/03/28 00:20:38;;;;;;;;;;;5.10;83.60;;;;;;4882330;29;19966;-82
2021/03/28 00:23:10;;;;;;;;;;;5.10;83.60;;;;;;4882467;29;19930;-82
2021/03/28 00:25:39;;;;;;;;;;;5.10;83.70;;;;;;4881329;29;19930;-83
2021/03/28 00:28:07;;;;;;;;;;;5.10;83.80;;;;;;4867650;29;19924;-82
2021/03/28 00:30:35;;;;;;;;;;;5.10;83.90;;;;;;4864292;29;19931;-82
2021/03/28 00:33:00;;;;;;;;;;;5.10;84.40;;;;;;4871608;29;19924;-82
2021/03/28 00:35:32;;;;;;;;;;;5.10;84.20;;;;;;4881930;29;19931;-82
2021/03/28 00:38:18;;;;;;;;;;;5.10;84.20;;;;;;4882460;29;19927;-83
2021/03/28 00:41:01;;;;;;;;;;;5.10;84.10;;;;;;4882022;29;20308;-82
2021/03/28 00:43:27;;;;;;;;;;;5.10;84.00;;;;;;4882540;29;20399;-83
2021/03/28 00:45:57;;;;;;;;;;;5.00;84.00;;;;;;4881004;29;19962;-83
2021/03/28 00:48:29;;;;;;;;;;;5.00;84.40;;;;;;4865760;29;19924;-82
2021/03/28 00:51:10;;;;;;;;;;;5.10;84.50;;;;;;4863969;29;19931;-83
2021/03/28 00:53:39;;;;;;;;;;;5.10;84.50;;;;;;4863846;29;19924;-82
2021/03/28 00:56:10;;;;;;;;;;;5.10;84.80;;;;;;4862567;29;20407;-82
2021/03/28 00:58:42;;;;;;;;;;;5.10;85.00;;;;;;4863677;29;19930;-82
2021/03/28 01:01:22;;;;;;;;;;;5.10;84.80;;;;;;4863317;29;20399;-82
2021/03/28 01:04:09;;;;;;;;;;;5.10;84.90;;;;;;4874580;29;19928;-82
2021/03/28 01:06:44;;;;;;;;;;;5.10;84.90;;;;;;4882281;29;19979;-83
2021/03/28 01:09:19;;;;;;;;;;;5.10;85.20;;;;;;4875476;29;19924;-83
2021/03/28 01:11:53;;;;;;;;;;;5.10;85.30;;;;;;4876668;29;20333;-83
2021/03/28 01:14:22;;;;;;;;;;;5.10;85.40;;;;;;4866028;29;19932;-82
2021/03/28 01:17:07;;;;;;;;;;;5.10;85.40;;;;;;4862273;29;19928;-83
2021/03/28 01:19:43;;;;;;;;;;;5.10;85.40;;;;;;4863242;29;20373;-83
2021/03/28 01:22:08;;;;;;;;;;;5.10;85.70;;;;;;4876326;29;20352;-82
2021/03/28 01:24:36;;;;;;;;;;;5.20;86.30;;;;;;4880892;29;19928;-82
2021/03/28 01:27:10;;;;;;;;;;;5.20;86.60;;;;;;4881492;29;19980;-83
2021/03/28 01:29:44;;;;;;;;;;;5.20;87.00;;;;;;4881578;29;20369;-83
2021/03/28 01:32:16;;;;;;;;;;;5.20;86.90;;;;;;4880729;29;19959;-83
2021/03/28 01:34:47;;;;;;;;;;;5.20;87.40;;;;;;4881705;29;19923;-82
2021/03/28 01:37:17;;;;;;;;;;;5.20;87.50;;;;;;4880573;29;19930;-83
2021/03/28 01:39:45;;;;;;;;;;;5.20;87.50;;;;;;4881538;29;19924;-83
2021/03/28 01:42:19;;;;;;;;;;;5.20;87.80;;;;;;4881277;29;19923;-82
2021/03/28 01:45:07;;;;;;;;;;;5.20;87.80;;;;;;4880586;29;20296;-81
2021/03/28 01:47:48;;;;;;;;;;;5.30;87.90;;;;;;4873480;29;19934;-82
2021/03/28 01:50:25;;;;;;;;;;;5.30;87.70;;;;;;4870930;29;20018;-82
2021/03/28 01:53:08;;;;;;;;;;;5.30;88.10;;;;;;4878348;29;20273;-82
2021/03/28 01:55:45;;;;;;;;;;;5.30;88.20;;;;;;4880591;29;19923;-82
2021/03/28 01:58:27;;;;;;;;;;;5.30;88.60;;;;;;4880101;29;19924;-82
2021/03/28 02:01:01;;;;;;;;;;;5.30;88.60;;;;;;4864143;29;19952;-82
2021/03/28 02:03:34;;;;;;;;;;;5.30;88.30;;;;;;4862540;29;20031;-82
2021/03/28 02:06:00;;;;;;;;;;;5.30;88.50;;;;;;4861598;29;19924;-82
2021/03/28 02:08:33;;;;;;;;;;;5.30;88.30;;;;;;4862626;29;20395;-82
2021/03/28 02:11:13;;;;;;;;;;;5.30;88.30;;;;;;4865564;29;19927;-82
2021/03/28 02:13:50;;;;;;;;;;;5.30;88.10;;;;;;4880257;29;20348;-83
2021/03/28 02:16:19;;;;;;;;;;;5.30;88.20;;;;;;4880590;29;19931;-82
2021/03/28 02:18:45;;;;;;;;;;;5.30;88.40;;;;;;4880346;29;20006;-82
2021/03/28 02:21:22;;;;;;;;;;;5.30;88.10;;;;;;4879839;29;20039;-83
2021/03/28 02:23:56;;;;;;;;;;;5.30;88.30;;;;;;4880338;29;20376;-83
2021/03/28 02:26:47;;;;;;;;;;;5.30;88.10;;;;;;4879688;29;20010;-82
2021/03/28 02:29:13;;;;;;;;;;;5.30;88.00;;;;;;4841956;29;19927;-83
2021/03/28 02:31:45;;;;;;;;;;;5.20;88.00;;;;;;4880367;29;19976;-82
2021/03/28 02:34:20;;;;;;;;;;;5.30;88.30;;;;;;4879637;29;19924;-82
2021/03/28 02:37:04;;;;;;;;;;;5.20;88.00;;;;;;4880289;29;19928;-82
2021/03/28 02:39:43;;;;;;;;;;;5.20;88.10;;;;;;4880539;29;19928;-82
2021/03/28 02:42:12;;;;;;;;;;;5.20;87.80;;;;;;4879076;29;20022;-82
2021/03/28 02:44:47;;;;;;;;;;;5.20;88.10;;;;;;4880229;29;19930;-82
2021/03/28 02:47:22;;;;;;;;;;;5.20;88.50;;;;;;4868762;29;20292;-82
2021/03/28 02:49:56;;;;;;;;;;;5.30;88.60;;;;;;4861920;29;20010;-82
2021/03/28 02:52:41;;;;;;;;;;;5.30;88.60;;;;;;4861475;29;19924;-82
2021/03/28 02:55:24;;;;;;;;;;;5.30;88.70;;;;;;4860766;29;19931;-82
2021/03/28 02:57:50;;;;;;;;;;;5.30;88.70;;;;;;4870064;29;19972;-82
2021/03/28 03:00:21;;;;;;;;;;;5.30;88.70;;;;;;4862612;29;19924;-83
2021/03/28 03:02:48;;;;;;;;;;;5.30;88.90;;;;;;4860874;29;19957;-82
2021/03/28 03:05:32;;;;;;;;;;;5.30;88.60;;;;;;4861210;29;19967;-82
2021/03/28 03:08:18;;;;;;;;;;;5.40;88.60;;;;;;4861375;29;19980;-82
2021/03/28 03:10:48;;;;;;;;;;;5.40;89.10;;;;;;4869756;29;19923;-82
2021/03/28 03:13:27;;;;;;;;;;;5.40;89.30;;;;;;4879768;29;19924;-82
2021/03/28 03:15:58;;;;;;;;;;;5.40;89.10;;;;;;4867775;29;19931;-82
2021/03/28 03:18:43;;;;;;;;;;;5.50;89.10;;;;;;4879809;29;19924;-83
2021/03/28 03:21:13;;;;;;;;;;;5.50;89.10;;;;;;4879642;29;20039;-82
2021/03/28 03:23:45;;;;;;;;;;;5.50;89.00;;;;;;4878263;29;19998;-82
2021/03/28 03:26:29;;;;;;;;;;;5.50;89.20;;;;;;4868549;29;19924;-83
2021/03/28 03:28:57;;;;;;;;;;;5.50;89.10;;;;;;4861111;29;20143;-82
2021/03/28 03:31:26;;;;;;;;;;;5.60;88.90;;;;;;4860050;29;20487;-82
2021/03/28 03:34:13;;;;;;;;;;;5.60;89.00;;;;;;4861251;29;19924;-83
2021/03/28 03:36:53;;;;;;;;;;;5.60;89.10;;;;;;4878542;29;19928;-83
2021/03/28 03:39:32;;;;;;;;;;;5.60;89.30;;;;;;4879103;29;19932;-83
2021/03/28 03:42:04;;;;;;;;;;;5.70;89.60;;;;;;4879320;29;19979;-82
2021/03/28 03:44:32;;;;;;;;;;;5.70;89.20;;;;;;4878805;29;19924;-83
2021/03/28 03:47:12;;;;;;;;;;;5.70;89.10;;;;;;4879619;29;19927;-83
2021/03/28 03:49:46;;;;;;;;;;;5.70;89.20;;;;;;4879444;29;19946;-83
2021/03/28 03:52:30;;;;;;;;;;;5.70;89.30;;;;;;4878395;29;19928;-83
2021/03/28 03:54:59;;;;;;;;;;;5.70;89.50;;;;;;4877883;29;20015;-83
2021/03/28 03:57:32;;;;;;;;;;;5.80;89.70;;;;;;4879386;29;20300;-83
2021/03/28 03:59:58;;;;;;;;;;;5.80;89.30;;;;;;4878726;29;20387;-83
2021/03/28 04:02:31;;;;;;;;;;;5.80;89.60;;;;;;4879214;29;19924;-83
2021/03/28 04:05:13;;;;;;;;;;;5.80;89.40;;;;;;4878682;29;19930;-82
2021/03/28 04:07:39;;;;;;;;;;;5.80;89.40;;;;;;4879355;29;20023;-82
2021/03/28 04:10:04;;;;;;;;;;;5.80;89.70;;;;;;4878966;29;20006;-82
2021/03/28 04:12:30;;;;;;;;;;;5.80;89.70;;;;;;4878597;29;20304;-82
2021/03/28 04:14:58;;;;;;;;;;;5.80;89.50;;;;;;4869329;29;19924;-83
2021/03/28 04:17:27;;;;;;;;;;;5.80;89.60;;;;;;4867684;29;19987;-82
2021/03/28 04:20:09;;;;;;;;;;;5.80;89.70;;;;;;4871612;29;19980;-83
2021/03/28 04:22:56;;;;;;;;;;;5.80;89.50;;;;;;4871440;29;19932;-82
2021/03/28 04:25:33;;;;;;;;;;;5.80;89.30;;;;;;4871151;29;19931;-83
2021/03/28 04:28:05;;;;;;;;;;;5.80;89.40;;;;;;4867588;29;19928;-83
2021/03/28 04:30:37;;;;;;;;;;;5.70;89.50;;;;;;4869476;29;19975;-83
2021/03/28 04:33:15;;;;;;;;;;;5.80;89.70;;;;;;4872348;29;19924;-83
2021/03/28 04:35:41;;;;;;;;;;;5.80;89.50;;;;;;4868987;29;20456;-82
2021/03/28 04:38:20;;;;;;;;;;;5.70;89.50;;;;;;4877418;29;19959;-83
2021/03/28 04:41:04;;;;;;;;;;;5.70;89.30;;;;;;4875253;29;19927;-83
2021/03/28 04:43:29;;;;;;;;;;;5.70;89.50;;;;;;4875941;29;19977;-82
2021/03/28 04:45:58;;;;;;;;;;;5.70;89.60;;;;;;4877693;29;19971;-83
2021/03/28 04:48:37;;;;;;;;;;;5.70;89.50;;;;;;4874524;29;19924;-82
2021/03/28 04:51:20;;;;;;;;;;;5.70;89.60;;;;;;4877424;29;19998;-83
2021/03/28 04:53:58;;;;;;;;;;;5.70;89.80;;;;;;4872263;29;19924;-83
2021/03/28 04:56:42;;;;;;;;;;;5.70;90.00;;;;;;4875474;29;20400;-83
2021/03/28 04:59:34;;;;;;;;;;;5.60;89.80;;;;;;4880075;29;20337;-83
2021/03/28 05:02:26;;;;;;;;;;;5.60;90.00;;;;;;4859728;29;19923;-83
2021/03/28 05:05:07;;;;;;;;;;;5.60;90.00;;;;;;4848530;29;20413;-83
2021/03/28 05:07:52;;;;;;;;;;;5.60;90.30;;;;;;4862909;29;20021;-83
2021/03/28 05:10:20;;;;;;;;;;;5.60;90.20;;;;;;4862301;29;20393;-83
2021/03/28 05:13:04;;;;;;;;;;;5.70;90.40;;;;;;4863636;29;19928;-83
2021/03/28 05:16:01;;;;;;;;;;;5.70;90.40;;;;;;4881385;29;19994;-82
2021/03/28 05:18:39;;;;;;;;;;;5.60;90.30;;;;;;4882005;29;19931;-82
2021/03/28 05:21:11;;;;;;;;;;;5.60;90.30;;;;;;4871315;29;19924;-83
2021/03/28 05:23:36;;;;;;;;;;;5.60;90.20;;;;;;4866857;29;19927;-83
2021/03/28 05:26:20;;;;;;;;;;;5.60;90.20;;;;;;4863029;29;20384;-82
2021/03/28 05:28:53;;;;;;;;;;;5.60;90.30;;;;;;4877680;29;20414;-83
2021/03/28 05:31:21;;;;;;;;;;;5.60;90.40;;;;;;4875152;29;20408;-83
2021/03/28 05:33:59;;;;;;;;;;;5.60;90.40;;;;;;4875327;29;19924;-83
2021/03/28 05:36:55;;;;;;;;;;;5.60;90.40;;;;;;4870908;29;20649;-83
2021/03/28 05:39:39;;;;;;;;;;;5.60;90.40;;;;;;4871165;29;20031;-83
2021/03/28 05:42:14;;;;;;;;;;;5.60;90.30;;;;;;4862675;29;19931;-83
2021/03/28 05:44:58;;;;;;;;;;;5.50;90.30;;;;;;4866349;29;19923;-83
2021/03/28 05:47:42;;;;;;;;;;;5.50;90.20;;;;;;4867781;29;20011;-83
2021/03/28 05:50:20;;;;;;;;;;;5.50;90.30;;;;;;4875996;29;20006;-84
2021/03/28 05:53:04;;;;;;;;;;;5.50;90.30;;;;;;4876596;29;19924;-84
2021/03/28 05:55:41;;;;;;;;;;;5.50;90.40;;;;;;4862846;29;19931;-84
2021/03/28 05:58:13;;;;;;;;;;;5.50;90.80;;;;;;4876550;29;20027;-86
2021/03/28 06:00:38;;;;;;;;;;;5.50;90.40;;;;;;4876713;29;19931;-84
2021/03/28 06:03:10;;;;;;;;;;;5.50;90.40;;;;;;4862748;29;20384;-81
2021/03/28 06:06:04;;;;;;;;;;;5.60;90.40;;;;;;4874119;29;19923;-81
2021/03/28 06:08:38;;;;;;;;;;;5.60;90.40;;;;;;4874427;29;19931;-81
2021/03/28 06:11:29;;;;;;;;;;;5.60;90.50;;;;;;4876887;29;19928;-81
2021/03/28 06:14:07;;;;;;;;;;;5.60;90.50;;;;;;4871867;29;19931;-82
2021/03/28 06:16:51;;;;;;;;;;;5.70;90.60;;;;;;4871619;29;19951;-82
2021/03/28 06:19:35;;;;;;;;;;;5.70;90.60;;;;;;4876752;29;20380;-81
2021/03/28 06:22:04;;;;;;;;;;;5.70;90.50;;;;;;4878705;29;19995;-81
2021/03/28 06:24:40;;;;;;;;;;;5.80;90.60;;;;;;4876733;29;19930;-81
2021/03/28 06:27:08;;;;;;;;;;;5.80;90.60;;;;;;4879511;29;20444;-82
2021/03/28 06:29:45;;;;;;;;;;;5.90;90.90;;;;;;4880696;29;19923;-81
2021/03/28 06:32:29;;;;;;;;;;;6.00;91.00;;;;;;4879532;29;20353;-81
2021/03/28 06:35:13;;;;;;;;;;;6.00;91.30;;;;;;4862215;29;20014;-81
2021/03/28 06:37:44;;;;;;;;;;;6.10;90.90;;;;;;4864679;29;20011;-81
2021/03/28 06:40:38;;;;;;;;;;;6.20;90.70;;;;;;4872960;29;19931;-80
2021/03/28 06:43:25;;;;;;;;;;;6.20;90.50;;;;;;4874024;29;19946;-81
2021/03/28 06:46:06;;;;;;;;;;;6.30;90.70;;;;;;4875506;29;19935;-80
2021/03/28 06:48:50;;;;;;;;;;;6.30;90.50;;;;;;4866485;29;19931;-81
2021/03/28 06:51:26;;;;;;;;;;;6.40;90.40;;;;;;4879799;29;19924;-81
2021/03/28 06:53:52;;;;;;;;;;;6.40;90.40;;;;;;4872987;29;19927;-81
2021/03/28 06:56:20;;;;;;;;;;;6.50;90.50;;;;;;4877715;29;20801;-82
2021/03/28 06:58:46;;;;;;;;;;;6.50;90.40;;;;;;4879415;29;19995;-82
2021/03/28 07:01:30;;;;;;;;;;;6.60;90.30;;;;;;4878804;29;20372;-82
2021/03/28 07:03:56;;;;;;;;;;;6.60;90.30;;;;;;4880161;29;19958;-81
2021/03/28 07:06:28;;;;;;;;;;;6.70;90.20;;;;;;4880026;29;19979;-81
2021/03/28 07:08:59;;;;;;;;;;;6.70;90.20;;;;;;4879099;29;20431;-81
2021/03/28 07:11:39;;;;;;;;;;;6.80;90.10;;;;;;4875526;29;19925;-81
2021/03/28 07:14:04;;;;;;;;;;;6.80;90.00;;;;;;4879784;29;19936;-82
2021/03/28 07:16:30;;;;;;;;;;;6.90;90.00;;;;;;4869094;29;19930;-81
2021/03/28 07:19:14;;;;;;;;;;;7.00;90.00;;;;;;4879688;29;19924;-81
2021/03/28 07:21:48;;;;;;;;;;;7.00;90.00;;;;;;4879213;29;19947;-83
2021/03/28 07:24:33;;;;;;;;;;;7.10;89.90;;;;;;4879274;29;19931;-83
2021/03/28 07:27:08;;;;;;;;;;;7.10;90.10;;;;;;4879095;29;19934;-82
2021/03/28 07:29:52;;;;;;;;;;;7.30;89.70;;;;;;4876751;29;19931;-84
2021/03/28 07:32:27;;;;;;;;;;;7.30;89.70;;;;;;4870638;29;20418;-84
2021/03/28 07:35:02;;;;;;;;;;;7.40;89.40;;;;;;4860401;29;19946;-83
2021/03/28 07:37:33;;;;;;;;;;;7.50;89.50;;;;;;4860191;29;20031;-84
2021/03/28 07:40:18;;;;;;;;;;;7.50;89.10;;;;;;4860907;29;19928;-84
2021/03/28 07:43:09;;;;;;;;;;;7.60;89.00;;;;;;4860450;29;19924;-84
2021/03/28 07:45:34;;;;;;;;;;;7.60;88.80;;;;;;4861159;29;19924;-83
2021/03/28 07:48:19;;;;;;;;;;;7.70;88.60;;;;;;4860840;29;19924;-84
2021/03/28 07:50:50;;;;;;;;;;;7.70;88.50;;;;;;4860368;29;19947;-84
2021/03/28 07:53:34;;;;;;;;;;;7.80;88.40;;;;;;4861736;29;19924;-85
2021/03/28 07:56:12;;;;;;;;;;;7.80;88.10;;;;;;4860858;29;20383;-84
2021/03/28 07:58:46;;;;;;;;;;;7.90;88.10;;;;;;4860352;29;19924;-83
2021/03/28 08:01:17;;;;;;;;;;;8.00;87.90;;;;;;4860757;29;19924;-84
2021/03/28 08:04:03;;;;;;;;;;;8.00;87.80;;;;;;4861658;29;19924;-83
2021/03/28 08:06:34;;;;;;;;;;;8.10;87.80;;;;;;4860849;29;19971;-85
2021/03/28 08:09:26;;;;;;;;;;;8.10;87.50;;;;;;4860618;29;19963;-84
2021/03/28 08:12:11;;;;;;;;;;;8.20;87.70;;;;;;4816019;29;19924;-84
2021/03/28 08:14:36;;;;;;;;;;;8.30;87.80;;;;;;4863676;29;19924;-85
2021/03/28 08:17:05;;;;;;;;;;;8.40;87.50;;;;;;4868856;29;20396;-84
2021/03/28 08:19:54;;;;;;;;;;;8.50;87.10;;;;;;4859847;29;20309;-84
2021/03/28 08:22:40;;;;;;;;;;;8.60;86.80;;;;;;4860261;29;19928;-84
2021/03/28 08:25:27;;;;;;;;;;;8.60;86.30;;;;;;4859538;29;20307;-84
2021/03/28 08:28:00;;;;;;;;;;;8.70;85.80;;;;;;4862019;29;19924;-84
2021/03/28 08:30:35;;;;;;;;;;;8.70;84.90;;;;;;4881367;29;19924;-84
2021/03/28 08:33:24;;;;;;;;;;;8.80;84.60;;;;;;4879794;29;19923;-84
2021/03/28 08:35:58;;;;;;;;;;;8.80;84.20;;;;;;4866275;29;20020;-85
2021/03/28 08:38:41;;;;;;;;;;;8.90;84.30;;;;;;4872054;29;20017;-84
2021/03/28 08:41:19;;;;;;;;;;;8.90;83.60;;;;;;4882598;29;19938;-84
2021/03/28 08:44:03;;;;;;;;;;;9.00;84.40;;;;;;4892768;29;19931;-84
2021/03/28 08:46:29;;;;;;;;;;;9.10;83.20;;;;;;4881943;29;19984;-85
2021/03/28 08:49:02;;;;;;;;;;;9.20;83.50;;;;;;4880797;29;19928;-84
2021/03/28 08:51:46;;;;;;;;;;;9.20;82.30;;;;;;4882476;29;19924;-85
2021/03/28 08:54:19;;;;;;;;;;;9.30;82.00;;;;;;4881376;29;19962;-85
2021/03/28 08:56:48;;;;;;;;;;;9.40;81.50;;;;;;4882322;29;20465;-85
2021/03/28 08:59:35;;;;;;;;;;;9.40;81.20;;;;;;4882002;29;20424;-85
2021/03/28 09:02:07;;;;;;;;;;;9.50;81.20;;;;;;4871456;29;19924;-84
2021/03/28 09:04:39;;;;;;;;;;;9.60;81.40;;;;;;4877267;29;19931;-86
2021/03/28 09:07:08;;;;;;;;;;;9.70;80.20;;;;;;4864194;29;19924;-85
2021/03/28 09:09:33;;;;;;;;;;;9.80;79.70;;;;;;4872534;29;19940;-85
2021/03/28 09:12:45;;;;;;;;;;;9.80;78.70;;;;;;4875333;29;19924;-84
2021/03/28 09:15:36;;;;;;;;;;;10.00;77.90;;;;;;4789094;29;19924;-87
2021/03/28 09:18:01;;;;;;;;;;;10.10;77.90;;;;;;4864795;29;19923;-83
2021/03/28 09:20:33;;;;;;;;;;;10.10;78.00;;;;;;4876350;29;20448;-83
2021/03/28 09:23:28;;;;;;;;;;;10.10;77.60;;;;;;4858931;29;19933;-86
2021/03/28 09:26:44;;;;;;;;;;;10.20;76.70;;;;;;4858834;29;19924;-85
2021/03/28 09:29:38;;;;;;;;;;;10.30;75.90;;;;;;4873286;29;19928;-85
2021/03/28 09:32:47;;;;;;;;;;;10.30;76.40;;;;;;4848014;29;20056;-90
2021/03/28 09:35:58;;;;;;;;;;;10.50;76.70;;;;;;4832844;29;20352;-83
2021/03/28 09:38:33;;;;;;;;;;;10.60;75.30;;;;;;4867059;29;19924;-86
2021/03/28 09:41:24;;;;;;;;;;;10.60;75.90;;;;;;4870766;29;19935;-86
2021/03/28 09:44:08;;;;;;;;;;;10.80;76.30;;;;;;4857110;29;19928;-85
2021/03/28 09:46:53;;;;;;;;;;;10.90;75.50;;;;;;4878674;29;19931;-84
2021/03/28 09:49:43;;;;;;;;;;;10.90;74.60;;;;;;4870005;29;20465;-84
2021/03/28 09:55:57;;;;;;;;;;;11.00;73.00;;;;;;4877157;29;19924;-82
2021/03/28 09:59:14;;;;;;;;;;;11.10;72.80;;;;;;4875486;29;19930;-85
2021/03/28 10:04:32;;;;;;;;;;;11.10;73.40;;;;;;4887476;29;19979;-84
2021/03/28 10:07:11;;;;;;;;;;;11.10;73.60;;;;;;4880624;29;19949;-84
2021/03/28 10:10:00;;;;;;;;;;;11.00;73.50;;;;;;4887183;29;20381;-84
2021/03/28 10:12:30;;;;;;;;;;;11.00;73.50;;;;;;4896137;29;20296;-82
2021/03/28 10:22:09;;;;;;;;;;;10.90;73.40;;;;;;4893153;29;19926;-83
2021/03/28 10:29:00;;;;;;;;;;;11.00;76.00;;;;;;4802440;29;19978;-82
2021/03/28 10:31:49;;;;;;;;;;;11.00;75.90;;;;;;4803001;29;19932;-82
2021/03/28 10:34:44;;;;;;;;;;;10.90;75.80;;;;;;4777741;29;19973;-82
2021/03/28 10:37:38;;;;;;;;;;;10.90;77.10;;;;;;4803766;29;20275;-83
2021/03/28 10:40:29;;;;;;;;;;;10.90;77.90;;;;;;4803530;29;20032;-82
2021/03/28 10:43:22;;;;;;;;;;;10.80;78.20;;;;;;4803244;29;20013;-84
2021/03/28 10:49:48;;;;;;;;;;;10.70;79.10;;;;;;4824722;29;20011;-86
2021/03/28 10:55:52;;;;;;;;;;;10.70;80.20;;;;;;4995900;23;20015;-88
2021/03/28 10:59:05;;;;;;;;;;;10.60;80.90;;;;;;4843491;29;19925;-88
2021/03/28 11:09:04;;;;;;;;;;;10.50;81.20;;;;;;4829398;29;19919;-86
2021/03/28 11:15:10;;;;;;;;;;;10.50;81.20;;;;;;4857762;29;19920;-86
2021/03/28 11:18:00;;;;;;;;;;;10.50;81.70;;;;;;4861519;29;19924;-85
2021/03/28 11:21:03;;;;;;;;;;;10.40;81.90;;;;;;4860084;29;19924;-87
2021/03/28 11:23:53;;;;;;;;;;;10.40;82.20;;;;;;4848413;29;19947;-85
2021/03/28 11:26:37;;;;;;;;;;;10.50;82.20;;;;;;4856410;29;19928;-83
2021/03/28 11:29:23;;;;;;;;;;;10.50;82.20;;;;;;4859545;29;20393;-84
2021/03/28 11:32:10;;;;;;;;;;;10.50;82.10;;;;;;4844408;29;20300;-84
2021/03/28 11:34:46;;;;;;;;;;;10.50;82.30;;;;;;4854038;29;19928;-83
2021/03/28 11:37:42;;;;;;;;;;;10.50;82.30;;;;;;4850900;29;19981;-83
2021/03/28 11:40:27;;;;;;;;;;;10.40;82.50;;;;;;4831595;29;19924;-83
2021/03/28 11:43:05;;;;;;;;;;;10.40;82.80;;;;;;4855639;29;20381;-84
2021/03/28 11:45:43;;;;;;;;;;;10.40;83.10;;;;;;4850498;29;19924;-83
2021/03/28 11:48:27;;;;;;;;;;;10.40;83.10;;;;;;4860666;29;19924;-83
2021/03/28 11:50:55;;;;;;;;;;;10.40;83.60;;;;;;4857250;29;19925;-83
2021/03/28 11:53:23;;;;;;;;;;;10.40;83.60;;;;;;4842438;29;19921;-84
2021/03/28 11:55:54;;;;;;;;;;;10.30;83.70;;;;;;4845803;29;19932;-83
2021/03/28 11:58:20;;;;;;;;;;;10.30;83.80;;;;;;4855989;29;19943;-83
2021/03/28 12:00:53;;;;;;;;;;;10.30;84.10;;;;;;4857534;29;19924;-83
2021/03/28 12:03:18;;;;;;;;;;;10.30;84.30;;;;;;4862118;29;19935;-83
2021/03/28 12:05:58;;;;;;;;;;;10.20;84.40;;;;;;4859981;29;20308;-82
2021/03/28 12:08:26;;;;;;;;;;;10.20;84.70;;;;;;4863069;29;19924;-82
2021/03/28 12:10:52;;;;;;;;;;;10.20;85.10;;;;;;4863855;29;19920;-82
2021/03/28 12:13:30;;;;;;;;;;;10.20;85.50;;;;;;4864088;29;20343;-82
2021/03/28 12:16:01;;;;;;;;;;;10.20;85.80;;;;;;4864396;29;20413;-83
2021/03/28 12:18:28;;;;;;;;;;;10.10;86.70;;;;;;4853962;29;19924;-83
2021/03/28 12:21:03;;;;;;;;;;;10.10;86.00;;;;;;4864249;29;19920;-83
2021/03/28 12:23:30;;;;;;;;;;;10.10;86.30;;;;;;4859660;29;19924;-83
2021/03/28 12:26:07;;;;;;;;;;;10.10;86.70;;;;;;4864677;29;20023;-83
2021/03/28 12:28:45;;;;;;;;;;;10.10;86.70;;;;;;4864093;29;20372;-82
2021/03/28 12:31:33;;;;;;;;;;;10.10;86.90;;;;;;4856670;29;19928;-82
2021/03/28 12:33:58;;;;;;;;;;;10.10;87.00;;;;;;4860184;29;20373;-82
2021/03/28 12:36:24;;;;;;;;;;;10.10;87.60;;;;;;4863548;29;19947;-82
2021/03/28 12:38:52;;;;;;;;;;;10.10;87.60;;;;;;4855793;29;19925;-85
2021/03/28 12:41:20;;;;;;;;;;;10.10;87.80;;;;;;4852920;29;19931;-84
2021/03/28 12:44:13;;;;;;;;;;;10.10;87.70;;;;;;4860010;29;19931;-85
2021/03/28 12:46:56;;;;;;;;;;;10.00;87.60;;;;;;4858082;29;20332;-85
2021/03/28 12:49:32;;;;;;;;;;;10.00;87.50;;;;;;4852575;29;19931;-85
2021/03/28 12:52:04;;;;;;;;;;;10.10;87.80;;;;;;4861132;29;20341;-86
2021/03/28 12:54:31;;;;;;;;;;;10.00;87.60;;;;;;4859688;29;19965;-83
2021/03/28 12:57:02;;;;;;;;;;;10.00;87.60;;;;;;4859665;29;20333;-85
2021/03/28 12:59:40;;;;;;;;;;;10.00;87.60;;;;;;4860057;29;20039;-84
2021/03/28 13:02:23;;;;;;;;;;;10.00;87.80;;;;;;4861028;29;19924;-84
2021/03/28 13:04:54;;;;;;;;;;;10.10;87.80;;;;;;4860390;29;19924;-84
2021/03/28 13:07:38;;;;;;;;;;;10.00;87.80;;;;;;4858878;29;19935;-84
2021/03/28 13:10:14;;;;;;;;;;;10.00;88.00;;;;;;4854319;29;19930;-85
2021/03/28 13:12:39;;;;;;;;;;;10.10;87.90;;;;;;4854405;29;19924;-84
2021/03/28 13:15:27;;;;;;;;;;;10.10;87.80;;;;;;4861073;29;19950;-83
2021/03/28 13:18:21;;;;;;;;;;;10.10;87.80;;;;;;4855061;29;19947;-81
2021/03/28 13:20:51;;;;;;;;;;;10.10;87.70;;;;;;4844371;29;19925;-84
2021/03/28 13:23:29;;;;;;;;;;;10.10;87.70;;;;;;4854993;29;19924;-84
2021/03/28 13:26:39;;;;;;;;;;;10.10;87.90;;;;;;4855776;29;19943;-85
2021/03/28 13:29:36;;;;;;;;;;;10.10;87.70;;;;;;4796532;29;19937;-85
2021/03/28 13:32:55;;;;;;;;;;;10.00;87.70;;;;;;4803318;29;20334;-84
2021/03/28 13:38:31;;;;;;;;;;;10.10;87.80;;;;;;4804538;29;19925;-85
2021/03/28 13:40:58;;;;;;;;;;;10.20;87.50;;;;;;4802650;29;20100;-85
2021/03/28 13:43:28;;;;;;;;;;;10.10;87.50;;;;;;4826679;29;20381;-85
2021/03/28 13:46:07;;;;;;;;;;;10.10;87.30;;;;;;4847129;29;19924;-84
2021/03/28 13:48:33;;;;;;;;;;;10.10;87.30;;;;;;4849838;29;19955;-83
2021/03/28 13:51:14;;;;;;;;;;;10.10;87.20;;;;;;4862210;29;20404;-83
2021/03/28 13:53:41;;;;;;;;;;;10.10;87.10;;;;;;4862323;29;19924;-84
2021/03/28 13:56:09;;;;;;;;;;;10.00;86.90;;;;;;4861751;29;19924;-84
2021/03/28 13:58:42;;;;;;;;;;;10.00;86.80;;;;;;4861008;29;19932;-84
2021/03/28 14:01:26;;;;;;;;;;;10.00;86.80;;;;;;4849837;29;20395;-87
2021/03/28 14:03:55;;;;;;;;;;;10.00;86.90;;;;;;4848168;29;19924;-87
2021/03/28 14:06:28;;;;;;;;;;;10.10;87.00;;;;;;4858672;29;19980;-85
2021/03/28 14:09:16;;;;;;;;;;;10.10;87.00;;;;;;4852175;29;20395;-83
2021/03/28 14:11:42;;;;;;;;;;;10.10;87.00;;;;;;4844253;29;20281;-84
2021/03/28 14:14:24;;;;;;;;;;;10.10;86.90;;;;;;4851994;29;19931;-83
2021/03/28 14:17:11;;;;;;;;;;;10.10;87.00;;;;;;4851105;29;20021;-84
2021/03/28 14:19:37;;;;;;;;;;;10.10;87.30;;;;;;4848707;29;19951;-83
2021/03/28 14:22:11;;;;;;;;;;;10.10;87.00;;;;;;4850301;29;19928;-83
2021/03/28 14:24:37;;;;;;;;;;;10.10;87.10;;;;;;4842638;29;19931;-83
2021/03/28 14:27:28;;;;;;;;;;;10.10;87.10;;;;;;4849144;29;19931;-84
2021/03/28 14:37:08;;;;;;;;;;;10.00;87.40;;;;;;4822366;29;19971;-83
2021/03/28 14:39:58;;;;;;;;;;;10.10;87.60;;;;;;4822097;29;20012;-82
2021/03/28 14:42:29;;;;;;;;;;;10.10;87.80;;;;;;4838757;29;19931;-84
2021/03/28 14:45:14;;;;;;;;;;;10.00;87.80;;;;;;4843844;29;19968;-84
2021/03/28 14:47:55;;;;;;;;;;;10.00;87.80;;;;;;4848997;29;20449;-85
2021/03/28 14:50:45;;;;;;;;;;;10.00;87.90;;;;;;4843038;29;19959;-85
2021/03/28 14:53:26;;;;;;;;;;;10.00;87.80;;;;;;4842608;29;19924;-84
2021/03/28 14:56:13;;;;;;;;;;;10.00;87.80;;;;;;4843535;29;19932;-85
2021/03/28 14:58:38;;;;;;;;;;;10.00;87.90;;;;;;4843323;29;20277;-85
2021/03/28 15:01:27;;;;;;;;;;;10.00;88.00;;;;;;4842579;29;19930;-85
2021/03/28 15:03:56;;;;;;;;;;;10.00;88.00;;;;;;4833202;29;19927;-84
2021/03/28 15:06:27;;;;;;;;;;;10.00;88.10;;;;;;4841916;29;19924;-85
2021/03/28 15:08:56;;;;;;;;;;;10.00;88.20;;;;;;4843050;29;20377;-85
2021/03/28 15:11:28;;;;;;;;;;;10.00;88.20;;;;;;4842630;29;19931;-85
2021/03/28 15:13:59;;;;;;;;;;;10.00;88.30;;;;;;4842032;29;20342;-85
2021/03/28 15:16:27;;;;;;;;;;;9.90;88.40;;;;;;4843163;29;20271;-85
2021/03/28 15:19:11;;;;;;;;;;;10.00;88.60;;;;;;4843031;29;19980;-85
2021/03/28 15:21:55;;;;;;;;;;;9.90;88.70;;;;;;4842438;29;20010;-86
2021/03/28 15:24:21;;;;;;;;;;;9.90;88.80;;;;;;4842743;29;19961;-85
2021/03/28 15:26:49;;;;;;;;;;;9.90;88.90;;;;;;4842904;29;20019;-85
2021/03/28 15:29:18;;;;;;;;;;;9.90;89.00;;;;;;4842056;29;19924;-85
2021/03/28 15:31:46;;;;;;;;;;;9.90;89.10;;;;;;4842798;29;19925;-85
2021/03/28 15:34:14;;;;;;;;;;;9.90;89.20;;;;;;4841781;29;20226;-85
2021/03/28 15:36:58;;;;;;;;;;;9.80;89.10;;;;;;4842433;29;19930;-86
2021/03/28 15:39:47;;;;;;;;;;;9.80;89.20;;;;;;4842891;29;19928;-86
2021/03/28 15:42:29;;;;;;;;;;;9.80;89.10;;;;;;4841631;29;19954;-85
2021/03/28 15:44:55;;;;;;;;;;;9.80;89.20;;;;;;4842872;29;19951;-85
2021/03/28 15:47:34;;;;;;;;;;;9.90;89.40;;;;;;4842367;29;20365;-85
2021/03/28 15:50:20;;;;;;;;;;;9.80;89.50;;;;;;4841851;29;19925;-85
2021/03/28 15:53:14;;;;;;;;;;;9.80;89.70;;;;;;4842346;29;20408;-85
2021/03/28 15:55:48;;;;;;;;;;;9.80;89.80;;;;;;4825443;29;19924;-85
2021/03/28 15:58:20;;;;;;;;;;;9.80;89.70;;;;;;4842383;29;19947;-85
2021/03/28 16:00:58;;;;;;;;;;;9.80;90.00;;;;;;4842536;29;19937;-85
2021/03/28 16:03:42;;;;;;;;;;;9.80;90.10;;;;;;4841952;29;19997;-84
2021/03/28 16:06:10;;;;;;;;;;;9.70;90.00;;;;;;4842165;29;20373;-84
2021/03/28 16:08:39;;;;;;;;;;;9.70;90.10;;;;;;4842578;29;19925;-84
2021/03/28 16:11:22;;;;;;;;;;;9.70;90.10;;;;;;4845294;29;19920;-81